Weather at Zalaegerszeg-Andráshida Airfield

Public forecast

Using degrees Celsius for public forecast. Weather courtesy of forecast.io.

Closest aviation weather report (METAR) to Zalaegerszeg-Andráshida Airfield

Closest report is Hévíz–Balaton Airport, 19.3 nm (35.8 km) SE.

2022/11/27 08:15 (retrieved 40 minutes ago)

LHSM 270815Z AUTO 32007KT CAVOK 05/03 Q1030 NOSIG

Closest aviation forecast (TAF) to Zalaegerszeg-Andráshida Airfield

Closest forecast is Pápa Air Base, 40.9 nm (75.7 km) NE.

2022/11/27 06:00 (retrieved 3 hours ago)

TAF LHPA 270515Z 2706/2806 13005KT 9999 BKN040 PROB40 TEMPO 2706/2708 VRB03KT 5000 BR BKN005 BECMG 2708/2710 SCT020 BKN040 BECMG 2713/2715 VRB03KT BECMG 2717/2719 5000 BR BKN015 TEMPO 2720/2806 1500 BR MIFG BCFG OVC010 BECMG 2801/2803 16006KT